Главная страница
METAR-TAF:

METAR-TAF

Аэропорты :

Easton, Мэриленд, США

широта: 38-48N, долгота: 076-04W, высота над уровнем моря: 22 м

Текущие метеонаблюдения

Эта сводка был подготовлена 45 минут назад, в 00:50 UTC
Ветер 8 Узел от северный
Температура 2°C
Влажность 64%
Давление 1022 hPa
Видимость: 16.1 км
Рассеянная облачность на высоте 4900 фута
Рассеянная облачность на высоте 6000 фута

METAR: KESN 130050Z 36008KT 10SM BKN049 BKN060 02/M04 A3017

Время: 20:35 (01:35 UTC)


TAF: отсутствует

Метеонаблюдения и прогнозы для более 4000 аэропортов (сводки METAR и TAF).

Имеющиеся станции представлены на карте желтыми и красными точками.

Чтобы увидеть название станции, наведите на нее мышь.

Затем щелкните, чтобы увидеть метеонаблюдения и метеопрогнозы.

Управление картой: чтобы увеличить масштаб, щелкните зеленые кнопки с черным крестиком; чтобы уменьшить масштаб, щелкните зеленую кнопку с тире; для просмотра соседних карт щелкайте зеленые стрелки.


METAR-TAF: